Time;durP1;ratioP1;P1;durP2;ratioP2;P2;SDS_P1;SDS_P2;PMS_P1;PMS_P2;Temp;Humidity;BMP_temperature;BMP_pressure;BME280_temperature;BME280_humidity;BME280_pressure;Samples;Min_cycle;Max_cycle;Signal;HPM_P1;HPM_P2
2022/12/07 00:01:23;;;;;;;415.10;389.23;;;4.30;24.90;;;;;;5055866;28;20405;-69
2022/12/07 00:03:50;;;;;;;214.70;198.93;;;4.40;24.30;;;;;;5055634;28;20417;-70
2022/12/07 00:06:17;;;;;;;175.90;162.33;;;4.40;24.50;;;;;;5055784;28;20817;-70
2022/12/07 00:08:44;;;;;;;206.87;191.63;;;4.20;25.10;;;;;;5055756;28;20420;-70
2022/12/07 00:11:11;;;;;;;427.70;399.83;;;4.10;26.30;;;;;;5055709;28;20425;-70
2022/12/07 00:13:38;;;;;;;229.70;213.07;;;4.00;26.30;;;;;;5055535;28;20419;-70
2022/12/07 00:16:13;;;;;;;406.77;384.50;;;4.00;27.00;;;;;;5055741;28;20431;-70
2022/12/07 00:18:40;;;;;;;174.20;159.77;;;4.10;26.80;;;;;;5055991;28;20827;-70
2022/12/07 00:21:09;;;;;;;300.07;280.13;;;4.00;26.20;;;;;;5055910;28;20406;-70
2022/12/07 00:23:35;;;;;;;282.83;264.83;;;4.00;26.70;;;;;;5054074;28;20505;-70
2022/12/07 00:26:11;;;;;;;465.87;433.20;;;4.10;26.30;;;;;;5055509;28;20932;-70
2022/12/07 00:28:37;;;;;;;391.67;368.30;;;4.30;26.00;;;;;;5055409;28;20234;-69
2022/12/07 00:31:10;;;;;;;553.00;516.63;;;4.40;25.30;;;;;;5055577;28;20413;-69
2022/12/07 00:33:38;;;;;;;139.47;127.20;;;4.40;25.30;;;;;;5055099;28;20194;-69
2022/12/07 00:36:09;;;;;;;507.67;477.20;;;4.40;25.20;;;;;;5055237;28;20444;-69
2022/12/07 00:38:36;;;;;;;242.57;224.40;;;4.40;24.70;;;;;;5055383;28;20589;-69
2022/12/07 00:41:09;;;;;;;550.17;518.07;;;4.20;25.30;;;;;;5055385;28;20413;-69
2022/12/07 00:43:35;;;;;;;284.93;267.20;;;4.20;25.90;;;;;;5055599;28;20652;-69
2022/12/07 00:46:00;;;;;;;353.37;330.97;;;4.10;25.40;;;;;;5056102;28;20435;-69
2022/12/07 00:48:26;;;;;;;330.80;309.90;;;4.20;25.80;;;;;;5056006;28;20174;-69
2022/12/07 00:50:52;;;;;;;241.43;225.47;;;4.20;25.60;;;;;;5055575;28;20182;-69
2022/12/07 00:53:18;;;;;;;240.50;224.27;;;4.20;25.70;;;;;;5055192;28;20420;-69
2022/12/07 00:55:44;;;;;;;159.02;145.55;;;4.20;25.50;;;;;;5055301;28;20300;-69
2022/12/07 00:58:10;;;;;;;384.63;361.07;;;4.10;25.70;;;;;;5055384;28;20596;-69
2022/12/07 01:00:40;;;;;;;242.10;225.57;;;4.00;26.20;;;;;;5055041;28;20494;-70
2022/12/07 01:03:08;;;;;;;375.37;350.03;;;4.10;25.90;;;;;;5055055;28;20412;-70
2022/12/07 01:05:34;;;;;;;476.90;448.07;;;4.20;25.10;;;;;;5054991;28;20810;-69
2022/12/07 01:08:00;;;;;;;321.83;299.73;;;4.00;25.50;;;;;;5055293;28;20423;-70
2022/12/07 01:10:26;;;;;;;354.67;332.30;;;4.00;26.00;;;;;;5053746;28;20180;-70
2022/12/07 01:12:51;;;;;;;411.77;383.87;;;4.00;26.30;;;;;;5054901;28;20456;-70
2022/12/07 01:15:17;;;;;;;329.87;308.47;;;4.10;26.30;;;;;;5053542;28;20257;-70
2022/12/07 01:17:43;;;;;;;411.07;386.27;;;4.10;25.90;;;;;;5053683;28;20186;-70
2022/12/07 01:20:09;;;;;;;522.90;492.27;;;4.00;26.20;;;;;;5055195;28;20174;-70
2022/12/07 01:22:40;;;;;;;436.35;410.90;;;4.00;27.30;;;;;;5054362;28;20177;-70
2022/12/07 01:25:07;;;;;;;297.87;277.90;;;4.00;27.80;;;;;;5054658;28;20222;-70
2022/12/07 01:27:34;;;;;;;404.00;377.43;;;4.00;27.70;;;;;;5054861;28;20417;-70
2022/12/07 01:30:00;;;;;;;248.77;232.33;;;4.10;27.50;;;;;;5055161;28;20428;-70
2022/12/07 01:32:26;;;;;;;209.27;192.83;;;4.10;27.20;;;;;;5055371;28;20435;-70
2022/12/07 01:34:51;;;;;;;435.43;409.47;;;3.90;27.30;;;;;;5055058;28;20851;-70
2022/12/07 01:37:17;;;;;;;364.90;343.17;;;3.90;27.70;;;;;;5053933;28;20425;-70
2022/12/07 01:39:42;;;;;;;501.93;471.23;;;3.90;27.70;;;;;;5054510;28;20265;-70
2022/12/07 01:42:10;;;;;;;166.40;152.43;;;4.00;27.30;;;;;;5054709;28;20613;-69
2022/12/07 01:45:14;;;;;;;438.87;414.70;;;4.10;27.00;;;;;;5054270;28;20201;-70
2022/12/07 01:47:44;;;;;;;448.87;422.93;;;4.10;26.90;;;;;;5054440;28;20415;-70
2022/12/07 01:50:10;;;;;;;367.10;343.83;;;4.10;26.60;;;;;;5054574;28;20462;-70
2022/12/07 01:52:38;;;;;;;223.53;206.27;;;4.10;26.90;;;;;;5054877;28;20449;-70
2022/12/07 01:55:08;;;;;;;326.77;305.00;;;4.10;26.90;;;;;;5054195;28;20209;-69
2022/12/07 01:57:36;;;;;;;350.20;324.97;;;4.10;26.90;;;;;;5054347;28;20416;-69
2022/12/07 02:00:04;;;;;;;227.57;209.07;;;4.20;26.50;;;;;;5054346;28;20457;-69
2022/12/07 02:02:34;;;;;;;281.30;263.30;;;4.30;25.60;;;;;;5036033;28;20455;-69
2022/12/07 02:05:03;;;;;;;443.17;418.13;;;4.30;25.70;;;;;;5053916;28;20447;-69
2022/12/07 02:07:31;;;;;;;204.30;188.33;;;4.20;25.80;;;;;;5053778;28;20563;-69
2022/12/07 02:09:57;;;;;;;322.83;299.33;;;4.10;25.70;;;;;;5054103;28;20413;-69
2022/12/07 02:12:24;;;;;;;435.63;408.67;;;4.20;26.20;;;;;;5053558;28;20761;-69
2022/12/07 02:14:51;;;;;;;231.30;214.37;;;4.20;26.40;;;;;;5053641;28;20614;-69
2022/12/07 02:17:25;;;;;;;370.33;346.10;;;4.20;26.60;;;;;;5053105;28;20505;-70
2022/12/07 02:20:11;;;;;;;446.90;420.60;;;4.20;26.60;;;;;;5053715;28;20416;-69
2022/12/07 02:23:04;;;;;;;161.93;149.53;;;4.00;26.40;;;;;;5052338;28;20517;-69
2022/12/07 02:26:06;;;;;;;440.83;417.40;;;4.10;26.90;;;;;;5053524;28;20835;-69
2022/12/07 02:29:09;;;;;;;277.40;257.23;;;4.10;26.40;;;;;;5052237;28;20424;-69
2022/12/07 02:31:40;;;;;;;313.87;292.83;;;4.10;26.20;;;;;;5052977;28;20419;-69
2022/12/07 02:34:55;;;;;;;335.13;313.20;;;4.00;26.60;;;;;;5052816;28;20533;-69
2022/12/07 02:37:36;;;;;;;396.07;367.17;;;3.90;27.20;;;;;;5010987;28;20475;-69
2022/12/07 02:40:31;;;;;;;290.40;270.80;;;3.90;27.70;;;;;;5010989;28;20509;-69
2022/12/07 02:43:30;;;;;;;225.07;209.37;;;3.90;27.70;;;;;;5045625;28;20980;-69
2022/12/07 02:46:10;;;;;;;257.80;240.73;;;4.00;27.70;;;;;;5053169;28;20578;-69
2022/12/07 02:48:38;;;;;;;385.20;362.10;;;4.00;27.80;;;;;;5053058;28;20423;-69
2022/12/07 02:51:04;;;;;;;440.30;416.33;;;4.00;27.70;;;;;;5053277;28;20731;-70
2022/12/07 02:53:37;;;;;;;365.63;341.07;;;4.00;27.50;;;;;;5052519;28;20430;-69
2022/12/07 02:56:18;;;;;;;543.33;509.43;;;4.00;27.70;;;;;;5052916;28;20234;-70
2022/12/07 02:59:02;;;;;;;342.23;318.83;;;4.10;26.80;;;;;;5053031;28;20408;-69
2022/12/07 03:01:41;;;;;;;536.37;499.73;;;4.10;26.60;;;;;;5052645;28;20576;-69
2022/12/07 03:04:24;;;;;;;381.20;353.70;;;4.00;26.40;;;;;;5052749;28;20733;-69
2022/12/07 03:06:56;;;;;;;413.63;385.77;;;4.00;26.90;;;;;;5052944;28;20569;-69
2022/12/07 03:09:37;;;;;;;409.67;383.53;;;4.00;26.50;;;;;;5052706;28;20491;-68
2022/12/07 03:12:15;;;;;;;419.53;395.13;;;4.00;27.10;;;;;;5052354;28;20453;-69
2022/12/07 03:15:00;;;;;;;363.13;337.37;;;3.90;27.70;;;;;;5051759;28;20570;-69
2022/12/07 03:17:30;;;;;;;192.17;176.77;;;4.00;27.70;;;;;;5052478;28;20906;-69
2022/12/07 03:19:58;;;;;;;230.00;212.40;;;4.00;27.70;;;;;;5052423;28;20791;-68
2022/12/07 03:22:30;;;;;;;600.67;564.27;;;4.00;27.70;;;;;;5052349;28;20422;-69
2022/12/07 03:25:00;;;;;;;355.63;332.50;;;4.00;27.30;;;;;;5052157;28;20460;-69
2022/12/07 03:27:33;;;;;;;511.63;481.00;;;4.00;27.70;;;;;;5052068;28;20420;-69
2022/12/07 03:30:05;;;;;;;479.03;448.47;;;4.10;27.80;;;;;;5052065;28;20804;-68
2022/12/07 03:32:39;;;;;;;378.80;351.98;;;4.10;27.70;;;;;;5052245;28;20472;-69
2022/12/07 03:35:19;;;;;;;540.20;506.20;;;4.10;27.30;;;;;;5052402;28;20212;-69
2022/12/07 03:38:11;;;;;;;513.50;479.30;;;4.10;27.00;;;;;;5052261;28;20515;-69
2022/12/07 03:40:44;;;;;;;379.25;358.77;;;3.90;27.50;;;;;;5052724;28;20904;-69
2022/12/07 03:43:11;;;;;;;377.47;350.73;;;3.80;27.60;;;;;;5051988;28;20268;-69
2022/12/07 03:45:41;;;;;;;373.80;348.53;;;3.80;27.60;;;;;;5051967;28;20496;-69
2022/12/07 03:48:22;;;;;;;276.77;257.63;;;3.70;27.50;;;;;;5052262;28;20859;-69
2022/12/07 03:50:56;;;;;;;448.30;424.75;;;3.70;26.90;;;;;;5052066;28;20174;-69
2022/12/07 03:53:33;;;;;;;405.83;379.42;;;3.70;26.60;;;;;;5051952;28;20180;-69
2022/12/07 03:56:00;;;;;;;331.80;311.67;;;3.80;25.50;;;;;;5051893;28;20548;-69
2022/12/07 03:58:25;;;;;;;406.90;384.00;;;3.90;25.10;;;;;;5051965;28;20180;-69
2022/12/07 04:00:52;;;;;;;474.90;449.40;;;3.80;24.60;;;;;;5052336;28;20774;-70
2022/12/07 04:03:17;;;;;;;433.45;409.58;;;3.70;25.30;;;;;;5052944;28;20176;-69
2022/12/07 04:05:43;;;;;;;454.07;423.17;;;3.70;25.40;;;;;;5054001;28;20196;-69
2022/12/07 04:08:09;;;;;;;375.70;354.20;;;3.70;24.70;;;;;;5054250;28;20536;-69
2022/12/07 04:10:35;;;;;;;337.90;318.27;;;3.70;24.50;;;;;;5054859;28;20424;-70
2022/12/07 04:13:00;;;;;;;548.20;516.57;;;3.70;24.60;;;;;;5053312;28;20640;-69
2022/12/07 04:15:26;;;;;;;452.50;428.70;;;3.70;24.80;;;;;;5052396;28;20463;-69
2022/12/07 04:17:52;;;;;;;240.93;223.97;;;3.80;24.80;;;;;;5052077;28;20609;-69
2022/12/07 04:20:18;;;;;;;459.97;435.40;;;3.80;25.20;;;;;;5052276;28;20438;-68
2022/12/07 04:22:43;;;;;;;493.87;467.63;;;3.80;24.30;;;;;;5051893;28;20181;-69
2022/12/07 04:25:09;;;;;;;460.03;434.17;;;3.80;24.50;;;;;;5051753;28;20647;-69
2022/12/07 04:27:35;;;;;;;390.13;367.23;;;3.80;24.80;;;;;;5052864;28;20200;-69
2022/12/07 04:30:00;;;;;;;385.90;364.70;;;3.80;24.50;;;;;;5052042;28;20184;-69
2022/12/07 04:32:26;;;;;;;148.90;135.47;;;3.90;24.20;;;;;;5051659;28;20244;-69
2022/12/07 04:34:51;;;;;;;224.93;207.87;;;3.80;24.00;;;;;;5051732;28;20268;-69
2022/12/07 04:37:17;;;;;;;146.40;133.53;;;3.60;24.30;;;;;;5051967;28;20188;-70
2022/12/07 04:39:44;;;;;;;381.70;357.10;;;3.50;25.50;;;;;;5052784;28;20180;-70
2022/12/07 04:42:10;;;;;;;314.63;291.08;;;3.40;26.50;;;;;;5055610;28;20597;-70
2022/12/07 04:44:36;;;;;;;349.83;325.87;;;3.30;27.00;;;;;;5055778;28;20203;-70
2022/12/07 04:47:02;;;;;;;418.00;395.50;;;3.30;27.30;;;;;;5055642;28;20419;-70
2022/12/07 04:49:28;;;;;;;336.60;315.95;;;3.40;27.30;;;;;;5055459;28;20230;-70
2022/12/07 04:51:53;;;;;;;337.17;314.23;;;3.40;27.30;;;;;;5054989;28;20181;-69
2022/12/07 04:54:19;;;;;;;413.60;388.70;;;3.40;27.30;;;;;;5055422;28;20227;-69
2022/12/07 04:56:45;;;;;;;295.43;277.20;;;3.40;27.30;;;;;;5055446;28;20174;-69
2022/12/07 04:59:12;;;;;;;250.93;233.73;;;3.40;27.30;;;;;;5055479;28;20189;-70
2022/12/07 05:01:38;;;;;;;221.30;203.05;;;3.50;26.80;;;;;;5055076;28;20646;-69
2022/12/07 05:04:03;;;;;;;93.03;70.67;;;3.50;26.10;;;;;;5054969;28;20301;-70
2022/12/07 05:06:29;;;;;;;372.37;347.63;;;3.50;25.90;;;;;;5054783;28;20216;-70
2022/12/07 05:08:55;;;;;;;257.17;238.70;;;3.50;25.80;;;;;;5055123;28;20660;-70
2022/12/07 05:11:39;;;;;;;350.53;329.70;;;3.40;26.20;;;;;;5054986;28;20631;-70
2022/12/07 05:14:18;;;;;;;369.65;344.23;;;3.40;26.30;;;;;;5054790;28;20236;-69
2022/12/07 05:16:46;;;;;;;127.10;115.33;;;3.30;26.60;;;;;;5055030;28;20520;-69
2022/12/07 05:19:12;;;;;;;514.13;482.10;;;3.30;27.30;;;;;;5054988;28;20420;-70
2022/12/07 05:21:38;;;;;;;250.37;232.73;;;3.20;27.20;;;;;;5054390;28;20180;-69
2022/12/07 05:24:04;;;;;;;501.63;470.70;;;3.10;27.20;;;;;;5054442;28;20511;-69
2022/12/07 05:26:30;;;;;;;325.20;304.13;;;3.00;27.80;;;;;;5055248;28;20921;-69
2022/12/07 05:28:56;;;;;;;132.30;119.90;;;2.90;28.20;;;;;;5055045;28;20187;-69
2022/12/07 05:31:23;;;;;;;214.32;198.15;;;2.90;28.30;;;;;;5054477;28;21003;-69
2022/12/07 05:33:48;;;;;;;154.68;141.23;;;2.80;28.40;;;;;;5054033;28;20204;-69
2022/12/07 05:36:14;;;;;;;374.27;349.60;;;2.80;28.50;;;;;;5054311;28;20296;-69
2022/12/07 05:38:40;;;;;;;129.13;116.87;;;2.80;28.60;;;;;;5054261;28;20589;-69
2022/12/07 05:41:07;;;;;;;215.00;197.70;;;2.80;28.50;;;;;;5054830;28;20180;-69
2022/12/07 05:43:33;;;;;;;273.13;253.80;;;2.80;28.70;;;;;;5054202;28;20537;-69
2022/12/07 05:45:59;;;;;;;327.80;306.83;;;2.70;28.90;;;;;;5054273;28;20196;-69
2022/12/07 05:48:25;;;;;;;184.70;170.13;;;2.70;28.90;;;;;;5054485;28;20411;-70
2022/12/07 05:50:52;;;;;;;393.70;370.80;;;2.60;29.20;;;;;;5053423;28;20451;-70
2022/12/07 05:53:18;;;;;;;500.52;468.13;;;2.60;28.70;;;;;;5053727;28;20186;-69
2022/12/07 05:55:44;;;;;;;217.27;201.20;;;2.40;28.60;;;;;;5054029;28;20575;-69
2022/12/07 06:00:57;;;;;;;159.82;145.82;;;2.20;29.40;;;;;;5054259;28;20462;-70
2022/12/07 06:03:23;;;;;;;206.98;190.65;;;2.10;30.00;;;;;;5053634;28;20180;-69
2022/12/07 06:05:48;;;;;;;173.68;159.43;;;2.00;30.50;;;;;;5053654;28;20225;-69
2022/12/07 06:08:17;;;;;;;227.13;210.37;;;1.90;30.80;;;;;;5054138;28;20193;-69
2022/12/07 06:10:42;;;;;;;115.72;103.97;;;1.90;31.20;;;;;;5053685;28;20546;-69
2022/12/07 06:13:11;;;;;;;166.03;151.70;;;1.80;32.20;;;;;;5053324;28;20179;-69
2022/12/07 06:15:37;;;;;;;204.95;188.88;;;1.70;32.00;;;;;;5054108;28;20207;-68
2022/12/07 06:18:02;;;;;;;150.93;137.07;;;1.60;33.10;;;;;;5054084;28;20597;-69
2022/12/07 06:20:28;;;;;;;94.67;74.57;;;1.60;33.20;;;;;;5052254;28;20805;-68
2022/12/07 06:22:53;;;;;;;105.80;94.20;;;1.40;34.10;;;;;;5053271;28;20167;-69
2022/12/07 06:25:19;;;;;;;155.20;141.90;;;1.40;35.10;;;;;;5053580;28;20613;-69
2022/12/07 06:27:44;;;;;;;176.53;162.10;;;1.30;35.10;;;;;;5054073;28;20652;-69
2022/12/07 06:30:10;;;;;;;167.30;152.67;;;1.20;35.00;;;;;;5053326;28;20182;-69
2022/12/07 06:32:36;;;;;;;153.00;139.37;;;1.10;34.90;;;;;;5053510;28;20187;-69
2022/12/07 06:35:03;;;;;;;216.98;199.30;;;1.10;34.90;;;;;;5053442;28;20211;-70
2022/12/07 06:37:28;;;;;;;133.63;120.47;;;1.00;34.80;;;;;;5053783;28;20172;-69
2022/12/07 06:39:54;;;;;;;127.40;115.40;;;0.90;34.70;;;;;;5053721;28;20245;-69
2022/12/07 06:42:19;;;;;;;162.47;148.07;;;0.90;34.70;;;;;;5052130;28;20321;-69
2022/12/07 06:44:45;;;;;;;129.53;116.97;;;0.90;34.70;;;;;;5053350;28;20198;-71
2022/12/07 06:47:11;;;;;;;127.23;114.90;;;0.90;36.20;;;;;;5053226;28;20535;-70
2022/12/07 06:49:37;;;;;;;109.30;97.57;;;0.90;35.70;;;;;;5053306;28;20179;-70
2022/12/07 06:52:04;;;;;;;151.77;138.67;;;0.90;36.10;;;;;;5052596;28;20771;-69
2022/12/07 06:54:30;;;;;;;108.82;97.75;;;0.90;34.70;;;;;;5052909;28;21054;-70
2022/12/07 06:56:58;;;;;;;113.60;102.40;;;0.90;36.50;;;;;;5052409;28;20274;-68
2022/12/07 06:59:24;;;;;;;133.40;120.68;;;1.00;36.60;;;;;;5052698;28;20185;-69
2022/12/07 07:01:50;;;;;;;123.90;111.90;;;1.10;36.00;;;;;;5052437;28;20262;-69
2022/12/07 07:04:15;;;;;;;108.87;97.33;;;1.10;35.60;;;;;;5052194;28;20182;-69
2022/12/07 07:06:41;;;;;;;140.03;127.47;;;1.10;33.40;;;;;;5052724;28;20621;-70
2022/12/07 07:09:06;;;;;;;101.93;85.77;;;1.10;33.20;;;;;;5052363;28;20256;-70
2022/12/07 07:11:32;;;;;;;145.17;132.33;;;1.10;32.80;;;;;;5052520;28;20214;-70
2022/12/07 07:14:01;;;;;;;109.23;98.27;;;1.20;32.50;;;;;;5052103;28;20194;-69
2022/12/07 07:16:28;;;;;;;120.78;108.93;;;1.30;31.50;;;;;;5052076;28;20228;-70
2022/12/07 07:18:53;;;;;;;173.80;159.70;;;1.40;32.00;;;;;;5052559;28;20189;-70
2022/12/07 07:21:19;;;;;;;156.20;143.17;;;1.50;31.60;;;;;;5052156;28;20175;-70
2022/12/07 07:23:44;;;;;;;136.47;123.93;;;1.60;31.60;;;;;;5051889;28;20207;-70
2022/12/07 07:26:10;;;;;;;147.07;133.53;;;1.60;31.90;;;;;;5052240;28;20193;-70
2022/12/07 07:28:36;;;;;;;107.33;95.77;;;1.70;30.90;;;;;;5052132;28;20253;-69
2022/12/07 07:31:01;;;;;;;185.13;170.73;;;1.80;30.30;;;;;;5051973;28;20173;-70
2022/12/07 07:33:27;;;;;;;184.27;169.10;;;1.90;29.60;;;;;;5051658;28;20190;-69
2022/12/07 07:35:52;;;;;;;134.47;122.03;;;1.90;30.00;;;;;;5052596;28;20664;-70
2022/12/07 07:38:18;;;;;;;139.37;127.40;;;2.00;30.40;;;;;;5051836;28;20205;-70
2022/12/07 07:40:44;;;;;;;292.37;272.33;;;2.10;28.80;;;;;;5051951;28;20544;-70
2022/12/07 07:43:09;;;;;;;148.13;135.15;;;2.20;28.80;;;;;;5051755;28;20182;-69
2022/12/07 07:45:35;;;;;;;181.87;167.80;;;2.30;28.90;;;;;;5051990;28;20191;-70
2022/12/07 07:48:01;;;;;;;142.37;129.63;;;2.40;28.60;;;;;;5051915;28;20256;-69
2022/12/07 07:50:26;;;;;;;137.93;124.97;;;2.50;27.90;;;;;;5051660;28;20224;-69
2022/12/07 07:52:52;;;;;;;150.73;137.50;;;2.60;27.30;;;;;;5051801;28;20215;-69
2022/12/07 07:55:18;;;;;;;157.17;143.73;;;2.70;27.50;;;;;;5051412;28;20214;-70
2022/12/07 07:57:43;;;;;;;253.53;235.60;;;2.70;26.80;;;;;;5051875;28;20710;-70
2022/12/07 08:00:14;;;;;;;281.37;263.80;;;2.70;26.10;;;;;;5051872;28;20176;-69
2022/12/07 08:02:40;;;;;;;595.47;556.22;;;2.80;26.50;;;;;;5051825;28;20177;-70
2022/12/07 08:05:06;;;;;;;263.85;245.48;;;2.90;26.00;;;;;;5052246;28;20732;-70
2022/12/07 08:07:32;;;;;;;197.45;181.55;;;2.80;25.40;;;;;;5051736;28;20185;-71
2022/12/07 08:09:57;;;;;;;242.63;225.97;;;2.90;25.20;;;;;;5051809;28;20202;-70
2022/12/07 08:12:23;;;;;;;498.97;466.23;;;2.90;24.70;;;;;;5051430;28;20181;-70
2022/12/07 08:14:48;;;;;;;420.20;393.90;;;3.00;24.50;;;;;;5053003;28;20207;-70
2022/12/07 08:17:14;;;;;;;325.90;303.97;;;3.00;23.60;;;;;;5055904;28;20533;-70
2022/12/07 08:19:40;;;;;;;385.80;359.40;;;3.00;23.00;;;;;;5055675;28;20177;-70
2022/12/07 08:22:05;;;;;;;193.33;177.70;;;3.00;23.10;;;;;;5055659;28;20656;-71
2022/12/07 08:24:34;;;;;;;445.13;416.57;;;3.20;23.10;;;;;;5055505;28;20628;-70
2022/12/07 08:26:59;;;;;;;362.38;338.02;;;3.10;23.10;;;;;;5055501;28;20181;-70
2022/12/07 08:29:25;;;;;;;459.47;430.23;;;3.10;23.20;;;;;;5055396;28;20172;-70
2022/12/07 08:31:51;;;;;;;418.70;391.37;;;3.10;23.40;;;;;;5055206;28;20177;-70
2022/12/07 08:34:16;;;;;;;316.97;294.30;;;3.20;23.80;;;;;;5055623;28;20213;-70
2022/12/07 08:36:42;;;;;;;285.67;265.97;;;3.30;23.20;;;;;;5054035;28;20182;-70
2022/12/07 08:39:07;;;;;;;96.30;62.63;;;3.40;22.40;;;;;;5055372;28;20202;-71
2022/12/07 08:41:33;;;;;;;358.97;337.60;;;3.50;21.70;;;;;;5055076;28;20259;-70
2022/12/07 08:43:59;;;;;;;266.13;249.33;;;3.60;21.40;;;;;;5055015;28;20192;-70
2022/12/07 08:46:37;;;;;;;293.63;274.63;;;3.80;20.50;;;;;;5055460;28;20182;-70
2022/12/07 08:49:18;;;;;;;195.30;179.77;;;4.00;20.50;;;;;;5056063;28;20181;-71
2022/12/07 08:51:44;;;;;;;281.20;260.85;;;4.10;19.60;;;;;;5055114;28;20192;-71
2022/12/07 08:54:16;;;;;;;164.37;150.93;;;4.10;19.60;;;;;;5055076;28;20210;-71
2022/12/07 08:56:43;;;;;;;318.73;300.20;;;4.20;19.00;;;;;;5055200;28;20404;-71
2022/12/07 08:59:08;;;;;;;232.37;216.17;;;4.30;18.90;;;;;;5055194;28;20176;-70
2022/12/07 09:01:34;;;;;;;350.80;330.60;;;4.30;18.70;;;;;;5054590;28;20408;-70
2022/12/07 09:04:00;;;;;;;276.03;258.43;;;4.40;19.10;;;;;;5054708;28;20424;-70
2022/12/07 09:06:25;;;;;;;430.23;404.57;;;4.50;18.30;;;;;;5054836;28;20651;-69
2022/12/07 09:08:55;;;;;;;80.47;59.13;;;4.70;18.00;;;;;;5053519;28;20190;-70
2022/12/07 09:11:21;;;;;;;436.37;412.00;;;4.80;17.00;;;;;;5054745;28;20420;-70
2022/12/07 09:13:46;;;;;;;349.03;326.70;;;4.90;17.40;;;;;;5054324;28;20497;-70
2022/12/07 09:16:12;;;;;;;458.30;432.43;;;5.00;16.30;;;;;;5054594;28;20222;-70
2022/12/07 09:18:38;;;;;;;318.10;297.37;;;5.10;16.20;;;;;;5054393;28;20171;-70
2022/12/07 09:21:04;;;;;;;163.13;149.03;;;4.90;15.80;;;;;;5054364;28;20200;-70
2022/12/07 09:23:29;;;;;;;232.77;215.93;;;4.90;15.80;;;;;;5054213;28;20408;-70
2022/12/07 09:25:58;;;;;;;365.70;344.30;;;5.10;15.60;;;;;;5053004;28;20460;-70
2022/12/07 09:28:24;;;;;;;340.00;318.70;;;5.00;16.20;;;;;;5054595;28;20185;-70
2022/12/07 09:30:49;;;;;;;455.43;427.63;;;5.20;16.00;;;;;;5054303;28;20413;-70
2022/12/07 09:33:15;;;;;;;249.83;232.50;;;5.20;16.00;;;;;;5054061;28;20175;-71
2022/12/07 09:35:48;;;;;;;425.20;398.57;;;5.00;15.90;;;;;;5054104;28;20210;-70
2022/12/07 09:38:14;;;;;;;329.77;307.27;;;5.30;16.10;;;;;;5054157;28;20416;-70
2022/12/07 09:40:40;;;;;;;388.40;364.33;;;5.30;15.60;;;;;;5054581;28;20417;-70
2022/12/07 09:43:20;;;;;;;445.60;419.70;;;5.40;15.80;;;;;;5053905;28;20421;-70
2022/12/07 09:45:47;;;;;;;357.33;334.23;;;5.60;15.30;;;;;;5054141;28;20425;-70
2022/12/07 09:48:23;;;;;;;310.43;291.90;;;5.70;14.70;;;;;;5053896;28;20771;-70
2022/12/07 09:50:50;;;;;;;258.10;240.40;;;5.80;14.70;;;;;;5054164;28;20504;-70
2022/12/07 09:53:36;;;;;;;341.93;321.10;;;5.90;14.60;;;;;;5053607;28;20420;-70
2022/12/07 09:56:03;;;;;;;405.53;379.93;;;5.80;14.90;;;;;;5053752;28;20464;-70
2022/12/07 09:58:30;;;;;;;472.20;442.70;;;5.60;14.50;;;;;;5053531;28;20595;-70
2022/12/07 10:01:01;;;;;;;312.37;292.90;;;5.70;14.60;;;;;;5053836;28;20922;-70
2022/12/07 10:03:28;;;;;;;399.57;374.90;;;5.60;14.20;;;;;;5053477;28;20872;-70
2022/12/07 10:05:54;;;;;;;379.53;356.20;;;5.80;13.30;;;;;;5053459;28;20512;-70
2022/12/07 10:08:20;;;;;;;331.40;310.33;;;6.00;13.60;;;;;;5053545;28;20418;-70
2022/12/07 10:10:50;;;;;;;497.27;467.17;;;6.20;13.60;;;;;;5053464;28;20498;-70
2022/12/07 10:13:21;;;;;;;315.17;296.43;;;6.40;13.20;;;;;;5053471;28;20500;-70
2022/12/07 10:15:52;;;;;;;329.60;309.37;;;6.20;12.40;;;;;;5053609;28;20457;-70
2022/12/07 10:18:26;;;;;;;278.47;261.27;;;5.90;12.40;;;;;;5053584;28;20411;-70
2022/12/07 10:21:01;;;;;;;234.30;217.73;;;5.70;13.10;;;;;;5053341;28;20421;-70
2022/12/07 10:23:27;;;;;;;297.97;278.20;;;5.90;12.20;;;;;;5053036;28;20402;-70
2022/12/07 10:25:54;;;;;;;277.57;258.83;;;5.60;12.00;;;;;;5053130;28;20452;-70
2022/12/07 10:28:20;;;;;;;274.67;256.57;;;5.80;12.10;;;;;;5053426;28;20171;-70
2022/12/07 10:30:59;;;;;;;306.37;287.80;;;5.90;11.70;;;;;;5053165;28;20464;-70
2022/12/07 10:33:48;;;;;;;292.60;273.27;;;5.90;11.70;;;;;;5053270;28;20397;-70
2022/12/07 10:36:17;;;;;;;194.70;180.63;;;5.80;11.00;;;;;;5053190;28;20444;-70
2022/12/07 10:39:00;;;;;;;214.03;199.33;;;5.90;11.10;;;;;;5052831;28;20496;-70
2022/12/07 10:41:26;;;;;;;302.77;284.13;;;5.90;11.60;;;;;;5052906;28;20471;-70
2022/12/07 10:43:55;;;;;;;332.27;311.83;;;6.20;10.70;;;;;;5053173;28;20408;-70
2022/12/07 10:46:28;;;;;;;285.60;267.07;;;6.30;9.70;;;;;;5052824;28;20679;-70
2022/12/07 10:49:39;;;;;;;189.80;175.73;;;6.40;9.80;;;;;;5052142;28;20952;-70
2022/12/07 10:52:17;;;;;;;297.23;278.13;;;6.00;8.80;;;;;;5053123;28;20409;-70
2022/12/07 10:55:03;;;;;;;237.80;221.47;;;6.00;10.10;;;;;;5052795;28;20464;-70
2022/12/07 10:57:58;;;;;;;293.63;275.23;;;6.20;9.10;;;;;;5052674;28;20429;-70
2022/12/07 11:00:56;;;;;;;299.17;280.27;;;6.30;9.80;;;;;;5052542;28;20414;-70
2022/12/07 11:03:53;;;;;;;275.77;258.17;;;6.20;9.80;;;;;;5036289;28;20502;-70
2022/12/07 11:06:22;;;;;;;344.33;323.40;;;6.00;10.00;;;;;;5052913;28;20433;-70
2022/12/07 11:09:18;;;;;;;219.13;203.80;;;6.10;9.90;;;;;;5052468;28;20420;-70
2022/12/07 11:12:01;;;;;;;301.70;282.77;;;6.30;9.60;;;;;;5046791;28;20474;-70
2022/12/07 11:14:40;;;;;;;273.73;255.73;;;6.20;10.50;;;;;;5052387;28;20559;-70
2022/12/07 11:17:23;;;;;;;380.40;357.40;;;6.30;10.40;;;;;;5052495;28;20408;-70
2022/12/07 11:20:12;;;;;;;350.30;329.43;;;6.00;11.10;;;;;;5052165;28;20915;-69
2022/12/07 11:23:01;;;;;;;328.33;309.37;;;6.30;10.40;;;;;;5052098;28;20437;-70
2022/12/07 11:25:46;;;;;;;414.07;389.27;;;6.60;10.20;;;;;;5053665;28;20526;-70
2022/12/07 11:28:12;;;;;;;288.70;269.77;;;6.70;9.80;;;;;;5054501;28;20429;-69
2022/12/07 11:31:05;;;;;;;331.13;310.83;;;6.70;9.60;;;;;;5053284;28;20410;-71
2022/12/07 11:33:53;;;;;;;360.23;338.27;;;6.70;9.60;;;;;;5052817;28;20179;-71
2022/12/07 11:36:44;;;;;;;263.60;246.67;;;6.90;8.70;;;;;;5054794;28;20433;-70
2022/12/07 11:39:28;;;;;;;287.47;268.80;;;7.00;8.50;;;;;;5054709;28;20944;-69
2022/12/07 11:42:03;;;;;;;300.93;281.77;;;6.80;8.60;;;;;;5053032;28;20472;-69
2022/12/07 11:44:49;;;;;;;334.63;313.13;;;6.80;8.40;;;;;;5054441;28;20526;-70
2022/12/07 11:47:41;;;;;;;359.83;337.50;;;6.80;8.40;;;;;;5055590;28;20444;-70
2022/12/07 11:50:25;;;;;;;287.80;269.97;;;6.80;8.40;;;;;;5053415;28;20444;-69
2022/12/07 11:53:01;;;;;;;292.23;273.00;;;6.50;9.30;;;;;;5053872;28;20411;-70
2022/12/07 11:55:29;;;;;;;244.80;228.87;;;6.50;9.50;;;;;;5054435;28;20473;-69
2022/12/07 11:58:08;;;;;;;324.10;303.87;;;6.40;10.40;;;;;;5055019;28;20415;-70
2022/12/07 12:00:35;;;;;;;360.43;338.30;;;6.70;9.70;;;;;;5055504;28;20410;-68
2022/12/07 12:03:15;;;;;;;351.77;329.60;;;6.80;9.60;;;;;;5053951;28;20506;-69
2022/12/07 12:05:40;;;;;;;295.80;276.53;;;6.80;9.30;;;;;;5054629;28;20947;-70
2022/12/07 12:08:17;;;;;;;336.33;316.03;;;6.80;9.00;;;;;;5055011;28;20462;-70
2022/12/07 12:10:58;;;;;;;287.63;268.70;;;6.70;9.70;;;;;;5054571;28;20179;-69
2022/12/07 12:13:57;;;;;;;298.30;278.93;;;6.80;9.60;;;;;;5054241;28;20407;-70
2022/12/07 12:16:35;;;;;;;336.73;316.30;;;6.30;10.20;;;;;;5034880;28;20504;-69
2022/12/07 12:19:25;;;;;;;365.10;343.43;;;6.30;10.70;;;;;;5054129;28;20409;-68
2022/12/07 12:21:57;;;;;;;312.17;292.63;;;6.40;10.20;;;;;;5054274;28;20433;-69
2022/12/07 12:24:26;;;;;;;368.47;346.83;;;6.50;10.20;;;;;;5055318;28;20448;-69
2022/12/07 12:27:03;;;;;;;325.37;304.53;;;6.40;10.30;;;;;;5053528;28;20429;-69
2022/12/07 12:29:37;;;;;;;350.17;328.87;;;6.40;9.90;;;;;;5053352;28;20427;-71
2022/12/07 12:32:16;;;;;;;288.57;270.87;;;6.60;10.20;;;;;;5053988;28;20775;-69
2022/12/07 12:34:58;;;;;;;359.50;337.27;;;6.50;10.00;;;;;;5053823;28;20477;-71
2022/12/07 12:37:32;;;;;;;257.50;240.13;;;6.70;10.00;;;;;;5054242;28;20410;-69
2022/12/07 12:40:16;;;;;;;240.90;223.77;;;6.70;10.20;;;;;;5054325;28;20425;-70